createdAt,value
2022-12-17T00:02:05.578Z,101863.69
2022-12-17T00:04:50.683Z,101871.22
2022-12-17T00:07:43.759Z,101877.03
2022-12-17T00:10:29.455Z,101876.44
2022-12-17T00:13:15.382Z,101866.66
2022-12-17T00:16:00.943Z,101874.44
2022-12-17T00:18:46.197Z,101870.81
2022-12-17T00:21:31.412Z,101864.88
2022-12-17T00:24:16.495Z,101861.53
2022-12-17T00:27:01.727Z,101862.63
2022-12-17T00:29:46.742Z,101862.88
2022-12-17T00:32:31.969Z,101859.53
2022-12-17T00:35:16.871Z,101867.28
2022-12-17T00:38:05.046Z,101869.50
2022-12-17T00:40:50.286Z,101863.31
2022-12-17T00:43:35.708Z,101856.91
2022-12-17T00:46:22.559Z,101860.47
2022-12-17T00:49:07.654Z,101859.03
2022-12-17T00:51:52.715Z,101852.63
2022-12-17T00:54:37.757Z,101858.44
2022-12-17T00:57:22.715Z,101852.28
2022-12-17T01:00:07.795Z,101850.28
2022-12-17T01:02:52.888Z,101858.88
2022-12-17T01:05:38.993Z,101853.56
2022-12-17T01:08:29.931Z,101850.19
2022-12-17T01:11:19.761Z,101857.09
2022-12-17T01:14:04.714Z,101856.53
2022-12-17T01:16:49.900Z,101857.63
2022-12-17T01:19:34.935Z,101861.78
2022-12-17T01:22:19.968Z,101866.75
2022-12-17T01:25:05.212Z,101868.94
2022-12-17T01:27:50.419Z,101865.56
2022-12-17T01:30:35.931Z,101869.69
2022-12-17T01:33:22.415Z,101882.22
2022-12-17T01:36:07.441Z,101877.72
2022-12-17T01:38:52.825Z,101879.94
2022-12-17T01:41:37.886Z,101875.13
2022-12-17T01:44:43.690Z,101875.63
2022-12-17T01:47:29.172Z,101882.56
2022-12-17T01:50:14.193Z,101876.66
2022-12-17T01:52:59.563Z,101868.53
2022-12-17T01:55:44.538Z,101868.19
2022-12-17T01:58:29.658Z,101875.09
2022-12-17T02:01:14.853Z,101878.16
2022-12-17T02:04:00.189Z,101883.38
2022-12-17T02:06:46.974Z,101882.75
2022-12-17T02:09:39.161Z,101893.66
2022-12-17T02:12:33.456Z,101894.50
2022-12-17T02:15:30.536Z,101892.53
2022-12-17T02:18:18.157Z,101887.59
2022-12-17T02:21:09.388Z,101894.34
2022-12-17T02:24:09.942Z,101890.81
2022-12-17T02:27:02.588Z,101889.22
2022-12-17T02:29:50.253Z,101889.81
2022-12-17T02:32:36.852Z,101888.22
2022-12-17T02:35:24.570Z,101890.47
2022-12-17T02:38:09.481Z,101883.31
2022-12-17T02:40:56.951Z,101887.53
2022-12-17T02:43:47.721Z,101889.56
2022-12-17T02:46:33.174Z,101891.84
2022-12-17T02:49:18.690Z,101889.66
2022-12-17T02:52:04.254Z,101882.72
2022-12-17T02:54:50.791Z,101884.13
2022-12-17T02:57:36.818Z,101881.94
2022-12-17T03:00:24.456Z,101882.56
2022-12-17T03:03:29.388Z,101885.91
2022-12-17T03:06:14.489Z,101882.88
2022-12-17T03:08:59.801Z,101882.59
2022-12-17T03:11:48.376Z,101882.34
2022-12-17T03:14:33.487Z,101884.63
2022-12-17T03:17:19.087Z,101884.63
2022-12-17T03:20:04.499Z,101881.59
2022-12-17T03:22:49.659Z,101877.72
2022-12-17T03:25:34.720Z,101879.66
2022-12-17T03:28:34.438Z,101874.91
2022-12-17T03:31:19.455Z,101870.44
2022-12-17T03:34:05.289Z,101872.38
2022-12-17T03:36:50.786Z,101865.38
2022-12-17T03:39:35.789Z,101869.03
2022-12-17T03:42:40.788Z,101864.53
2022-12-17T03:45:26.174Z,101856.41
2022-12-17T03:48:11.663Z,101862.84
2022-12-17T03:50:56.874Z,101857.03
2022-12-17T03:53:41.895Z,101854.81
2022-12-17T03:56:27.108Z,101852.63
2022-12-17T03:59:12.208Z,101855.97
2022-12-17T04:01:57.443Z,101869.44
2022-12-17T04:04:43.052Z,101864.16
2022-12-17T04:07:28.032Z,101857.22
2022-12-17T04:10:13.230Z,101856.72
2022-12-17T04:12:58.222Z,101856.22
2022-12-17T04:15:43.414Z,101851.22
2022-12-17T04:18:28.429Z,101857.97
2022-12-17T04:21:13.598Z,101849.31
2022-12-17T04:23:59.274Z,101842.41
2022-12-17T04:26:44.381Z,101848.06
2022-12-17T04:29:29.523Z,101850.31
2022-12-17T04:32:14.555Z,101840.00
2022-12-17T04:34:59.633Z,101842.28
2022-12-17T04:37:44.514Z,101843.72
2022-12-17T04:40:30.100Z,101846.22
2022-12-17T04:43:15.587Z,101847.91
2022-12-17T04:46:00.716Z,101857.97
2022-12-17T04:48:45.737Z,101853.84
2022-12-17T04:51:30.892Z,101845.72
2022-12-17T04:54:16.068Z,101846.56
2022-12-17T04:57:01.196Z,101855.53
2022-12-17T04:59:46.448Z,101855.53
2022-12-17T05:02:31.722Z,101860.03
2022-12-17T05:05:17.007Z,101868.38
2022-12-17T05:08:02.073Z,101858.31
2022-12-17T05:10:47.097Z,101858.59
2022-12-17T05:13:32.218Z,101863.06
2022-12-17T05:16:17.410Z,101865.84
2022-12-17T05:19:02.440Z,101862.47
2022-12-17T05:21:47.665Z,101862.72
2022-12-17T05:24:32.787Z,101872.19
2022-12-17T05:27:31.533Z,101866.88
2022-12-17T05:30:16.493Z,101865.44
2022-12-17T05:33:01.648Z,101860.13
2022-12-17T05:35:46.796Z,101866.81
2022-12-17T05:38:32.119Z,101868.75
2022-12-17T05:41:18.225Z,101878.22
2022-12-17T05:44:03.598Z,101875.66
2022-12-17T05:46:49.396Z,101875.66
2022-12-17T05:49:34.538Z,101881.84
2022-12-17T05:52:19.732Z,101878.81
2022-12-17T05:55:04.747Z,101874.88
2022-12-17T05:58:07.300Z,101879.97
2022-12-17T06:00:52.298Z,101880.53
2022-12-17T06:03:37.754Z,101880.28
2022-12-17T06:06:23.134Z,101882.59
2022-12-17T06:09:08.137Z,101878.44
2022-12-17T06:11:56.619Z,101877.91
2022-12-17T06:14:44.544Z,101885.19
2022-12-17T06:17:29.711Z,101883.81
2022-12-17T06:20:14.743Z,101874.94
2022-12-17T06:22:59.928Z,101880.00
2022-12-17T06:25:44.999Z,101882.53
2022-12-17T06:28:29.992Z,101885.91
2022-12-17T06:31:15.064Z,101890.13
2022-12-17T06:34:00.284Z,101891.78
2022-12-17T06:36:45.341Z,101890.69
2022-12-17T06:39:30.454Z,101890.69
2022-12-17T06:42:15.587Z,101890.44
2022-12-17T06:45:00.614Z,101890.19
2022-12-17T06:47:46.698Z,101883.78
2022-12-17T06:50:31.957Z,101884.63
2022-12-17T06:53:18.139Z,101884.63
2022-12-17T06:56:03.177Z,101887.41
2022-12-17T06:58:48.191Z,101879.03
2022-12-17T07:01:33.443Z,101888.50
2022-12-17T07:04:32.210Z,101885.72
2022-12-17T07:07:17.236Z,101892.38
2022-12-17T07:10:02.835Z,101896.03
2022-12-17T07:12:48.029Z,101890.69
2022-12-17T07:15:33.054Z,101893.78
2022-12-17T07:18:21.576Z,101885.91
2022-12-17T07:21:07.055Z,101887.28
2022-12-17T07:23:52.513Z,101891.16
2022-12-17T07:26:37.497Z,101895.06
2022-12-17T07:29:22.629Z,101897.53
2022-12-17T07:32:07.842Z,101896.91
2022-12-17T07:34:52.953Z,101900.25
2022-12-17T07:37:42.934Z,101904.13
2022-12-17T07:40:28.208Z,101904.41
2022-12-17T07:43:13.423Z,101902.13
2022-12-17T07:45:58.461Z,101916.31
2022-12-17T07:48:43.708Z,101919.59
2022-12-17T07:51:28.666Z,101920.13
2022-12-17T07:54:13.863Z,101920.38
2022-12-17T07:56:58.930Z,101930.69
2022-12-17T07:59:43.880Z,101922.84
2022-12-17T08:02:29.679Z,101926.16
2022-12-17T08:05:14.917Z,101925.53
2022-12-17T08:08:02.067Z,101923.53
2022-12-17T08:10:47.112Z,101929.38
2022-12-17T08:13:36.873Z,101931.56
2022-12-17T08:16:22.218Z,101932.09
2022-12-17T08:19:07.259Z,101931.50
2022-12-17T08:21:52.209Z,101929.22
2022-12-17T08:24:37.850Z,101934.19
2022-12-17T08:27:22.803Z,101928.91
2022-12-17T08:30:08.110Z,101938.59
2022-12-17T08:32:53.033Z,101941.91
2022-12-17T08:35:38.157Z,101939.38
2022-12-17T08:38:23.729Z,101943.53
2022-12-17T08:41:08.810Z,101940.38
2022-12-17T08:43:53.871Z,101938.94
2022-12-17T08:46:38.997Z,101943.09
2022-12-17T08:49:24.469Z,101943.34
2022-12-17T08:52:09.419Z,101938.00
2022-12-17T08:54:54.646Z,101935.50
2022-12-17T08:57:49.287Z,101938.28
2022-12-17T09:00:34.398Z,101942.75
2022-12-17T09:03:20.393Z,101944.19
2022-12-17T09:06:05.767Z,101948.72
2022-12-17T09:08:51.475Z,101959.72
2022-12-17T09:11:36.503Z,101961.75
2022-12-17T09:14:21.687Z,101960.13
2022-12-17T09:17:06.683Z,101961.59
2022-12-17T09:19:52.008Z,101967.50
2022-12-17T09:22:36.972Z,101958.59
2022-12-17T09:25:22.557Z,101948.91
2022-12-17T09:28:08.470Z,101953.72
2022-12-17T09:31:04.133Z,101960.72
2022-12-17T09:33:49.316Z,101958.53
2022-12-17T09:36:35.850Z,101956.06
2022-12-17T09:39:20.972Z,101953.84
2022-12-17T09:42:11.029Z,101960.03
2022-12-17T09:44:56.130Z,101963.38
2022-12-17T09:48:00.348Z,101960.09
2022-12-17T09:50:45.865Z,101966.53
2022-12-17T09:53:54.114Z,101960.69
2022-12-17T09:56:41.213Z,101962.63
2022-12-17T09:59:30.788Z,101952.94
2022-12-17T10:02:16.169Z,101959.34
2022-12-17T10:05:02.824Z,101965.78
2022-12-17T10:07:51.828Z,101967.97
2022-12-17T10:10:37.971Z,101972.47
2022-12-17T10:13:29.213Z,101970.53
2022-12-17T10:16:14.391Z,101982.53
2022-12-17T10:19:00.593Z,101978.03
2022-12-17T10:21:46.265Z,101988.34
2022-12-17T10:24:31.344Z,101985.81
2022-12-17T10:27:16.388Z,101986.06
2022-12-17T10:30:02.712Z,101989.94
2022-12-17T10:32:50.120Z,101980.97
2022-12-17T10:35:39.552Z,101976.50
2022-12-17T10:38:32.172Z,101992.66
2022-12-17T10:41:17.257Z,101985.38
2022-12-17T10:44:02.398Z,101986.75
2022-12-17T10:46:49.229Z,101980.56
2022-12-17T10:49:34.286Z,101982.50
2022-12-17T10:52:20.967Z,101978.06
2022-12-17T10:55:16.282Z,101986.13
2022-12-17T10:58:08.516Z,101978.09
2022-12-17T11:00:56.138Z,101972.03
2022-12-17T11:03:49.547Z,101974.03
2022-12-17T11:06:42.208Z,101969.66
2022-12-17T11:09:48.067Z,101970.84
2022-12-17T11:12:34.781Z,101971.16
2022-12-17T11:15:26.394Z,101971.47
2022-12-17T11:18:14.483Z,101968.78
2022-12-17T11:21:06.102Z,101969.13
2022-12-17T11:23:53.140Z,101964.72
2022-12-17T11:26:38.810Z,101969.75
2022-12-17T11:29:23.882Z,101973.97
2022-12-17T11:32:27.428Z,101965.09
2022-12-17T11:35:12.620Z,101972.09
2022-12-17T11:38:19.785Z,101973.25
2022-12-17T11:41:08.837Z,101965.47
2022-12-17T11:44:06.040Z,101963.53
2022-12-17T11:47:06.244Z,101966.66
2022-12-17T11:50:00.348Z,101962.75
2022-12-17T11:52:54.693Z,101964.16
2022-12-17T11:55:44.644Z,101957.50
2022-12-17T11:58:34.326Z,101952.75
2022-12-17T12:01:32.889Z,101951.66
2022-12-17T12:04:30.161Z,101960.59
2022-12-17T12:07:15.282Z,101950.28
2022-12-17T12:10:08.952Z,101948.34
2022-12-17T12:12:54.127Z,101943.59
2022-12-17T12:16:11.710Z,101950.88
2022-12-17T12:19:03.447Z,101945.78
2022-12-17T12:21:56.734Z,101951.38
2022-12-17T12:24:59.112Z,101955.28
2022-12-17T12:28:07.384Z,101946.31
2022-12-17T12:31:01.577Z,101943.78
2022-12-17T12:33:53.978Z,101934.84
2022-12-17T12:36:39.996Z,101939.56
2022-12-17T12:39:28.688Z,101938.19
2022-12-17T12:42:17.070Z,101940.50
2022-12-17T12:45:21.517Z,101929.88
2022-12-17T12:48:39.571Z,101931.03
2022-12-17T12:51:43.624Z,101934.44
2022-12-17T12:54:44.156Z,101945.91
2022-12-17T12:57:49.086Z,101950.16
2022-12-17T13:00:43.800Z,101940.38
2022-12-17T13:03:39.564Z,101942.66
2022-12-17T13:06:06.697Z,101951.63
2022-12-17T13:08:33.354Z,101941.59
2022-12-17T13:11:09.716Z,101945.81
2022-12-17T13:13:39.991Z,101948.34
2022-12-17T13:16:31.330Z,101945.03
2022-12-17T13:19:02.133Z,101941.97
2022-12-17T13:21:29.841Z,101953.75
2022-12-17T13:23:56.475Z,101947.88
2022-12-17T13:26:25.897Z,101956.00
2022-12-17T13:28:55.409Z,101956.84
2022-12-17T13:31:25.563Z,101952.09
2022-12-17T13:33:52.116Z,101958.25
2022-12-17T13:36:24.558Z,101957.41
2022-12-17T13:38:56.140Z,101964.69
2022-12-17T13:41:28.103Z,101961.06
2022-12-17T13:43:59.031Z,101961.06
2022-12-17T13:46:30.209Z,101958.25
2022-12-17T13:49:01.480Z,101959.38
2022-12-17T13:51:29.945Z,101963.00
2022-12-17T13:53:59.890Z,101960.50
2022-12-17T13:56:28.483Z,101957.69
2022-12-17T13:58:56.261Z,101956.84
2022-12-17T14:01:23.432Z,101952.91
2022-12-17T14:04:07.458Z,101965.16
2022-12-17T14:06:36.617Z,101972.16
2022-12-17T14:09:04.131Z,101970.69
2022-12-17T14:11:50.807Z,101969.28
2022-12-17T14:14:40.568Z,101967.84
2022-12-17T14:17:15.344Z,101966.16
2022-12-17T14:19:42.111Z,101961.94
2022-12-17T14:22:10.889Z,101967.78
2022-12-17T14:24:38.891Z,101973.66
2022-12-17T14:27:05.510Z,101974.75
2022-12-17T14:29:32.834Z,101980.88
2022-12-17T14:32:03.640Z,101981.97
2022-12-17T14:34:40.633Z,101988.91
2022-12-17T14:37:16.288Z,101988.34
2022-12-17T14:39:44.594Z,101996.97
2022-12-17T14:42:29.833Z,101994.69
2022-12-17T14:45:01.357Z,102000.78
2022-12-17T14:47:29.400Z,101998.28
2022-12-17T14:49:56.129Z,101996.84
2022-12-17T14:52:26.163Z,101995.41
2022-12-17T14:54:52.737Z,101998.47
2022-12-17T14:57:21.028Z,101992.56
2022-12-17T14:59:47.743Z,101993.94
2022-12-17T15:02:14.500Z,101992.22
2022-12-17T15:04:41.424Z,102000.00
2022-12-17T15:07:10.961Z,101993.84
2022-12-17T15:09:42.272Z,101993.25
2022-12-17T15:12:09.528Z,101996.31
2022-12-17T15:14:36.179Z,102000.47
2022-12-17T15:17:03.054Z,102003.78
2022-12-17T15:19:29.860Z,102004.03
2022-12-17T15:21:56.567Z,102014.59
2022-12-17T15:24:23.164Z,102010.38
2022-12-17T15:26:50.314Z,102019.00
2022-12-17T15:29:17.060Z,102013.94
2022-12-17T15:31:43.772Z,102015.03
2022-12-17T15:34:11.747Z,102009.13
2022-12-17T15:36:38.396Z,102003.78
2022-12-17T15:39:08.842Z,101997.66
2022-12-17T15:41:54.030Z,101994.25
2022-12-17T15:44:20.720Z,101992.84
2022-12-17T15:46:47.453Z,101992.22
2022-12-17T15:49:14.157Z,101998.31
2022-12-17T15:51:40.819Z,101998.56
2022-12-17T15:54:07.382Z,102001.63
2022-12-17T15:56:35.249Z,101998.47
2022-12-17T15:59:02.139Z,101998.47
2022-12-17T16:01:29.087Z,101992.56
2022-12-17T16:03:56.043Z,101978.06
2022-12-17T16:06:22.932Z,101975.75
2022-12-17T16:08:49.780Z,101987.19
2022-12-17T16:11:16.761Z,101979.31
2022-12-17T16:13:43.781Z,101989.88
2022-12-17T16:16:10.796Z,101994.84
2022-12-17T16:18:39.223Z,101999.00
2022-12-17T16:21:07.572Z,102000.97
2022-12-17T16:23:34.502Z,102007.03
2022-12-17T16:26:02.792Z,102001.13
2022-12-17T16:28:30.153Z,102012.53
2022-12-17T16:30:58.169Z,102013.03
2022-12-17T16:33:25.147Z,102001.53
2022-12-17T16:35:52.730Z,102008.22
2022-12-17T16:38:19.688Z,102010.16
2022-12-17T16:40:47.304Z,102005.94
2022-12-17T16:43:14.172Z,102013.69
2022-12-17T16:45:47.228Z,102020.63
2022-12-17T16:48:14.247Z,102019.19
2022-12-17T16:50:41.311Z,102021.38
2022-12-17T16:53:08.304Z,102019.69
2022-12-17T16:55:40.427Z,102011.56
2022-12-17T16:58:07.381Z,102011.31
2022-12-17T17:00:34.828Z,102011.09
2022-12-17T17:03:02.017Z,102011.09
2022-12-17T17:05:31.819Z,102011.66
2022-12-17T17:07:58.849Z,102002.81
2022-12-17T17:10:25.841Z,102009.31
2022-12-17T17:12:53.287Z,102014.72
2022-12-17T17:15:20.471Z,102016.75
2022-12-17T17:17:54.451Z,102030.78
2022-12-17T17:20:23.206Z,102017.16
2022-12-17T17:22:50.036Z,102009.13
2022-12-17T17:25:17.061Z,102014.22
2022-12-17T17:27:44.026Z,102014.56
2022-12-17T17:30:11.411Z,102022.41
2022-12-17T17:32:38.396Z,102023.84
2022-12-17T17:35:06.000Z,102021.38
2022-12-17T17:37:32.924Z,102019.16
2022-12-17T17:39:59.908Z,102030.09
2022-12-17T17:42:26.732Z,102035.41
2022-12-17T17:44:53.724Z,102033.25
2022-12-17T17:47:20.619Z,102037.72
2022-12-17T17:49:47.488Z,102031.06
2022-12-17T17:52:14.405Z,102031.06
2022-12-17T17:54:41.401Z,102027.41
2022-12-17T17:57:09.072Z,102035.53
2022-12-17T17:59:36.123Z,102029.09
2022-12-17T18:02:03.656Z,102034.69
2022-12-17T18:04:31.227Z,102029.34
2022-12-17T18:09:45.080Z,102038.56
2022-12-17T18:12:15.034Z,102038.81
2022-12-17T18:14:46.778Z,102035.19
2022-12-17T18:17:24.926Z,102036.03
2022-12-17T18:19:51.887Z,102043.53
2022-12-17T18:22:18.807Z,102037.97
2022-12-17T18:24:45.681Z,102040.75
2022-12-17T18:27:12.524Z,102048.31
2022-12-17T18:29:39.391Z,102051.09
2022-12-17T18:32:06.482Z,102055.19
2022-12-17T18:34:35.929Z,102049.84
2022-12-17T18:37:02.994Z,102043.47
2022-12-17T18:39:29.868Z,102037.28
2022-12-17T18:41:59.933Z,102033.63
2022-12-17T18:44:27.371Z,102033.06
2022-12-17T18:46:54.309Z,102031.38
2022-12-17T18:49:22.553Z,102023.25
2022-12-17T18:51:50.304Z,102032.72
2022-12-17T18:54:18.680Z,102040.84
2022-12-17T18:57:00.952Z,102036.09
2022-12-17T18:59:29.555Z,102049.53
2022-12-17T19:01:57.288Z,102048.44
2022-12-17T19:04:24.532Z,102036.50
2022-12-17T19:06:53.824Z,102034.09
2022-12-17T19:09:23.452Z,102044.75
2022-12-17T19:11:50.675Z,102047.03
2022-12-17T19:14:18.573Z,102048.44
2022-12-17T19:16:45.512Z,102053.53
2022-12-17T19:19:13.557Z,102053.00
2022-12-17T19:21:40.923Z,102050.53
2022-12-17T19:24:09.031Z,102050.31
2022-12-17T19:26:36.544Z,102055.34
2022-12-17T19:29:03.555Z,102058.75
2022-12-17T19:31:32.283Z,102052.06
2022-12-17T19:34:00.146Z,102047.06
2022-12-17T19:36:28.645Z,102044.88
2022-12-17T19:38:57.153Z,102049.94
2022-12-17T19:41:24.584Z,102047.75
2022-12-17T19:43:54.490Z,102043.81
2022-12-17T19:46:21.499Z,102040.78
2022-12-17T19:48:49.401Z,102038.00
2022-12-17T19:51:17.624Z,102043.34
2022-12-17T19:53:45.008Z,102039.16
2022-12-17T19:56:13.186Z,102039.41
2022-12-17T19:58:41.071Z,102045.00
2022-12-17T20:01:11.140Z,102046.69
2022-12-17T20:03:38.677Z,102045.84
2022-12-17T20:06:06.098Z,102045.84
2022-12-17T20:08:33.471Z,102051.44
2022-12-17T20:11:01.196Z,102055.34
2022-12-17T20:13:28.389Z,102059.22
2022-12-17T20:15:58.291Z,102053.03
2022-12-17T20:18:25.182Z,102060.25
2022-12-17T20:20:52.013Z,102057.47
2022-12-17T20:23:21.430Z,102058.56
2022-12-17T20:25:48.301Z,102062.47
2022-12-17T20:28:15.184Z,102068.88
2022-12-17T20:30:42.129Z,102075.56
2022-12-17T20:33:08.944Z,102077.53
2022-12-17T20:35:39.262Z,102069.41
2022-12-17T20:38:06.082Z,102078.84
2022-12-17T20:40:34.114Z,102072.72
2022-12-17T20:43:01.113Z,102067.38
2022-12-17T20:45:28.097Z,102067.63
2022-12-17T20:47:55.316Z,102063.50
2022-12-17T20:50:22.143Z,102061.53
2022-12-17T20:52:49.024Z,102062.97
2022-12-17T20:55:16.254Z,102056.88
2022-12-17T20:57:43.694Z,102051.03
2022-12-17T21:00:11.747Z,102064.50
2022-12-17T21:02:38.974Z,102062.28
2022-12-17T21:05:06.386Z,102066.75
2022-12-17T21:07:33.314Z,102062.59
2022-12-17T21:10:00.173Z,102066.84
2022-12-17T21:12:46.854Z,102060.72
2022-12-17T21:15:14.216Z,102070.56
2022-12-17T21:17:41.195Z,102067.22
2022-12-17T21:20:10.291Z,102071.72
2022-12-17T21:22:38.513Z,102069.25
2022-12-17T21:25:05.721Z,102062.56
2022-12-17T21:27:32.544Z,102079.03
2022-12-17T21:29:59.382Z,102085.22
2022-12-17T21:32:33.393Z,102084.97
2022-12-17T21:35:00.621Z,102084.72
2022-12-17T21:37:27.666Z,102085.56
2022-12-17T21:39:59.639Z,102092.59
2022-12-17T21:42:29.949Z,102087.81
2022-12-17T21:44:56.930Z,102085.03
2022-12-17T21:47:24.316Z,102085.03
2022-12-17T21:49:51.224Z,102085.03
2022-12-17T21:52:18.025Z,102090.63
2022-12-17T21:54:44.909Z,102095.09
2022-12-17T21:57:11.890Z,102088.66
2022-12-17T21:59:40.840Z,102086.16
2022-12-17T22:02:07.850Z,102085.31
2022-12-17T22:04:34.917Z,102083.84
2022-12-17T22:07:06.715Z,102079.41
2022-12-17T22:09:41.492Z,102068.47
2022-12-17T22:12:23.170Z,102070.66
2022-12-17T22:14:50.103Z,102074.59
2022-12-17T22:17:16.944Z,102083.22
2022-12-17T22:19:43.805Z,102085.41
2022-12-17T22:22:10.626Z,102090.13
2022-12-17T22:24:37.488Z,102096.84
2022-12-17T22:27:08.842Z,102082.28
2022-12-17T22:29:39.903Z,102072.22
2022-12-17T22:32:12.395Z,102074.44
2022-12-17T22:36:41.441Z,102063.53
2022-12-17T22:40:14.985Z,102060.41
2022-12-17T22:44:26.230Z,102049.75
2022-12-17T22:44:41.442Z,102041.63
2022-12-17T22:45:58.726Z,102038.25
2022-12-17T22:48:26.017Z,102036.81
2022-12-17T22:50:58.540Z,102028.69
2022-12-17T22:53:28.664Z,102030.06
2022-12-17T22:55:55.663Z,102028.38
2022-12-17T22:58:23.648Z,102023.31
2022-12-17T23:00:50.501Z,102031.94
2022-12-17T23:03:17.385Z,102024.94
2022-12-17T23:05:44.361Z,102025.44
2022-12-17T23:08:11.199Z,102032.09
2022-12-17T23:10:38.004Z,102029.28
2022-12-17T23:13:04.787Z,102038.72
2022-12-17T23:15:34.811Z,102037.28
2022-12-17T23:18:03.348Z,102041.44
2022-12-17T23:20:31.754Z,102035.25
2022-12-17T23:22:59.148Z,102034.69
2022-12-17T23:25:26.999Z,102028.50
2022-12-17T23:27:53.899Z,102026.00
2022-12-17T23:30:20.943Z,102021.72
2022-12-17T23:32:48.020Z,102018.06
2022-12-17T23:35:14.944Z,102016.38
2022-12-17T23:37:42.328Z,102016.06
2022-12-17T23:40:10.539Z,102011.84
2022-12-17T23:42:37.403Z,102014.88
2022-12-17T23:45:04.903Z,102010.66
2022-12-17T23:47:32.247Z,102024.25
2022-12-17T23:49:59.259Z,102023.44
2022-12-17T23:52:26.096Z,102020.28
2022-12-17T23:54:52.924Z,102025.88
2022-12-17T23:57:19.871Z,102019.09
2022-12-17T23:59:46.727Z,102030.53
